Time;durP1;ratioP1;P1;durP2;ratioP2;P2;SDS_P1;SDS_P2;PMS_P1;PMS_P2;Temp;Humidity;BMP_temperature;BMP_pressure;BME280_temperature;BME280_humidity;BME280_pressure;Samples;Min_cycle;Max_cycle;Signal;HPM_P1;HPM_P2
2021/10/28 00:14:26;;;;;;;;;;;;;;;5.62;87.66;100839.56;5072896;28;660;-60
2021/10/28 00:16:55;;;;;;;;;;;;;;;5.60;87.37;100843.78;5072730;28;790;-60
2021/10/28 00:19:22;;;;;;;;;;;;;;;5.53;87.09;100834.19;5072552;28;1939;-60
2021/10/28 00:21:49;;;;;;;;;;;;;;;5.49;86.94;100837.97;5072655;28;814;-60
2021/10/28 00:24:16;;;;;;;;;;;;;;;5.39;87.04;100841.16;5072553;28;897;-61
2021/10/28 00:26:44;;;;;;;;;;;;;;;5.34;87.70;100833.97;5072499;28;826;-61
2021/10/28 00:29:16;;;;;;;;;;;;;;;5.32;87.09;100828.03;5072646;28;794;-60
2021/10/28 00:31:43;;;;;;;;;;;;;;;5.27;87.45;100825.50;5072373;28;886;-61
2021/10/28 00:34:12;;;;;;;;;;;;;;;5.21;87.53;100833.16;5072327;28;838;-60
2021/10/28 00:36:39;;;;;;;;;;;;;;;5.15;87.59;100826.28;5072375;28;818;-60
2021/10/28 00:39:08;;;;;;;;;;;;;;;5.11;87.61;100823.41;5079907;28;1993;-61
2021/10/28 00:41:36;;;;;;;;;;;;;;;5.07;87.25;100832.66;5092564;28;818;-61
2021/10/28 00:44:04;;;;;;;;;;;;;;;4.90;87.46;100828.97;5092417;28;842;-61
2021/10/28 00:46:31;;;;;;;;;;;;;;;4.84;87.42;100824.06;5092378;28;838;-60
2021/10/28 00:48:59;;;;;;;;;;;;;;;4.75;86.88;100815.94;5092383;28;858;-61
2021/10/28 00:51:27;;;;;;;;;;;;;;;4.68;87.38;100815.69;5092237;28;924;-60
2021/10/28 00:53:56;;;;;;;;;;;;;;;4.62;87.28;100817.81;5092557;28;826;-60
2021/10/28 00:56:24;;;;;;;;;;;;;;;4.65;87.94;100811.69;5074257;28;1362;-60
2021/10/28 00:58:50;;;;;;;;;;;;;;;4.58;87.03;100810.63;5092071;28;1894;-60
2021/10/28 01:01:17;;;;;;;;;;;;;;;4.42;87.67;100818.69;5092160;28;774;-60
2021/10/28 01:03:44;;;;;;;;;;;;;;;4.32;87.29;100814.41;5092444;28;874;-60
2021/10/28 01:06:11;;;;;;;;;;;;;;;4.28;87.61;100814.28;5092324;28;791;-60
2021/10/28 01:08:39;;;;;;;;;;;;;;;4.29;87.88;100810.41;5092317;28;798;-60
2021/10/28 01:11:06;;;;;;;;;;;;;;;4.33;88.49;100807.78;5091751;28;810;-60
2021/10/28 01:13:34;;;;;;;;;;;;;;;4.42;88.48;100813.22;5091960;28;799;-60
2021/10/28 01:16:03;;;;;;;;;;;;;;;4.42;87.83;100813.22;5091816;28;822;-60
2021/10/28 01:18:33;;;;;;;;;;;;;;;4.21;87.28;100813.22;5091826;28;843;-60
2021/10/28 01:21:00;;;;;;;;;;;;;;;3.98;87.29;100812.75;5091911;28;886;-61
2021/10/28 01:23:27;;;;;;;;;;;;;;;3.81;87.49;100811.72;5091846;28;846;-60
2021/10/28 01:26:01;;;;;;;;;;;;;;;3.70;88.02;100815.19;5091804;28;857;-60
2021/10/28 01:28:30;;;;;;;;;;;;;;;3.67;88.65;100819.41;5091776;28;842;-60
2021/10/28 01:30:58;;;;;;;;;;;;;;;3.54;88.20;100814.97;5091694;28;802;-60
2021/10/28 01:33:26;;;;;;;;;;;;;;;3.38;88.26;100815.53;5073548;28;1283;-60
2021/10/28 01:35:53;;;;;;;;;;;;;;;3.43;89.24;100812.59;5091630;28;826;-60
2021/10/28 01:38:20;;;;;;;;;;;;;;;3.57;89.63;100809.63;5091353;28;1188;-60
2021/10/28 01:40:54;;;;;;;;;;;;;;;3.73;89.98;100807.13;5091574;28;1997;-61
2021/10/28 01:43:21;;;;;;;;;;;;;;;3.76;89.11;100801.00;5091560;28;858;-60
2021/10/28 01:45:48;;;;;;;;;;;;;;;3.67;88.80;100811.19;5091611;28;869;-60
2021/10/28 01:48:14;;;;;;;;;;;;;;;3.62;88.64;100812.16;5091622;28;802;-60
2021/10/28 01:50:41;;;;;;;;;;;;;;;3.62;89.45;100805.91;5091885;28;880;-60
2021/10/28 01:53:10;;;;;;;;;;;;;;;3.72;89.49;100807.47;5091547;28;857;-60
2021/10/28 01:55:38;;;;;;;;;;;;;;;3.79;89.42;100808.53;5091582;28;801;-60
2021/10/28 01:58:06;;;;;;;;;;;;;;;3.75;88.80;100804.06;5091407;28;923;-60
2021/10/28 02:00:33;;;;;;;;;;;;;;;3.68;88.91;100807.31;5073240;28;1951;-60
2021/10/28 02:02:59;;;;;;;;;;;;;;;3.61;89.02;100805.13;5091415;28;846;-60
2021/10/28 02:05:26;;;;;;;;;;;;;;;3.60;88.76;100802.69;5091438;28;785;-60
2021/10/28 02:07:53;;;;;;;;;;;;;;;3.55;89.22;100803.69;5091345;28;865;-60
2021/10/28 02:10:22;;;;;;;;;;;;;;;3.52;89.21;100801.63;5091377;28;818;-60
2021/10/28 02:12:50;;;;;;;;;;;;;;;3.37;88.45;100803.00;5091247;28;865;-60
2021/10/28 02:15:18;;;;;;;;;;;;;;;3.30;88.94;100801.91;5091562;28;877;-60
2021/10/28 02:17:45;;;;;;;;;;;;;;;3.13;88.32;100813.72;5091324;28;826;-60
2021/10/28 02:20:13;;;;;;;;;;;;;;;2.98;88.99;100799.44;5091190;28;1890;-60
2021/10/28 02:22:40;;;;;;;;;;;;;;;2.83;89.22;100802.72;5094017;28;857;-60
2021/10/28 02:25:07;;;;;;;;;;;;;;;2.75;89.82;100795.34;5095114;28;837;-60
2021/10/28 02:27:34;;;;;;;;;;;;;;;2.61;89.39;100801.00;5076843;28;893;-60
2021/10/28 02:30:01;;;;;;;;;;;;;;;2.44;89.43;100801.84;5095004;28;818;-60
2021/10/28 02:32:27;;;;;;;;;;;;;;;2.40;89.71;100809.84;5095282;28;877;-60
2021/10/28 02:34:54;;;;;;;;;;;;;;;2.36;89.97;100806.16;5094910;28;811;-60
2021/10/28 02:37:21;;;;;;;;;;;;;;;2.27;90.05;100823.69;5076726;28;1334;-60
2021/10/28 02:39:48;;;;;;;;;;;;;;;2.19;89.69;100817.88;5094595;28;1902;-60
2021/10/28 02:42:15;;;;;;;;;;;;;;;2.13;89.88;100813.72;5094857;28;803;-60
2021/10/28 02:44:43;;;;;;;;;;;;;;;2.29;90.22;100815.97;5094962;28;850;-60
2021/10/28 02:47:10;;;;;;;;;;;;;;;2.44;91.01;100815.47;5094740;28;803;-60
2021/10/28 02:49:37;;;;;;;;;;;;;;;2.48;90.43;100824.63;5094536;28;802;-60
2021/10/28 02:52:04;;;;;;;;;;;;;;;2.60;90.89;100815.78;5094622;28;806;-60
2021/10/28 02:54:31;;;;;;;;;;;;;;;2.59;90.45;100814.97;5094570;28;861;-60
2021/10/28 02:56:58;;;;;;;;;;;;;;;2.48;90.22;100818.38;5094710;28;818;-60
2021/10/28 02:59:25;;;;;;;;;;;;;;;2.46;90.38;100815.97;5094443;28;1890;-60
2021/10/28 03:01:52;;;;;;;;;;;;;;;2.56;90.63;100823.00;5076234;28;795;-60
2021/10/28 03:04:19;;;;;;;;;;;;;;;2.59;90.91;100833.28;5110049;28;1203;-60
2021/10/28 03:06:47;;;;;;;;;;;;;;;2.64;90.42;100833.91;5094289;28;873;-60
2021/10/28 03:09:20;;;;;;;;;;;;;;;2.69;90.83;100829.41;5094562;28;865;-60
2021/10/28 03:11:48;;;;;;;;;;;;;;;2.88;90.62;100831.78;5094129;28;846;-60
2021/10/28 03:14:18;;;;;;;;;;;;;;;2.92;90.91;100828.06;5094484;28;1011;-60
2021/10/28 03:19:48;;;;;;;;;;;;;;;2.60;88.99;100832.97;5061830;28;1882;-60
2021/10/28 03:27:45;;;;;;;;;;;;;;;2.10;90.32;100828.00;5093948;28;617;-60
2021/10/28 03:30:11;;;;;;;;;;;;;;;2.08;90.14;100830.25;5093820;28;885;-60
2021/10/28 03:32:39;;;;;;;;;;;;;;;2.02;90.16;100829.59;5093588;28;795;-60
2021/10/28 03:35:10;;;;;;;;;;;;;;;2.03;90.20;100833.13;5093754;28;822;-60
2021/10/28 03:37:42;;;;;;;;;;;;;;;1.91;90.11;100832.97;5075563;28;1421;-60
2021/10/28 03:40:35;;;;;;;;;;;;;;;1.84;90.29;100828.78;5075417;28;1979;-60
2021/10/28 04:30:23;;;;;;;;;;;;;;;2.48;91.36;100846.47;5093045;28;715;-60
2021/10/28 04:32:50;;;;;;;;;;;;;;;2.47;91.11;100844.03;5092764;28;865;-60
2021/10/28 04:35:19;;;;;;;;;;;;;;;2.38;91.27;100842.13;5092651;28;843;-60
2021/10/28 04:37:46;;;;;;;;;;;;;;;2.27;90.29;100845.50;5074481;28;1290;-60
2021/10/28 04:40:14;;;;;;;;;;;;;;;2.29;91.19;100849.50;5092354;28;1973;-60
2021/10/28 04:42:40;;;;;;;;;;;;;;;2.24;91.02;100844.19;5092488;28;803;-60
2021/10/28 04:45:08;;;;;;;;;;;;;;;2.39;92.68;100859.28;5092086;28;798;-60
2021/10/28 04:47:35;;;;;;;;;;;;;;;2.76;92.64;100860.56;5092409;28;811;-60
2021/10/28 04:50:01;;;;;;;;;;;;;;;2.69;91.94;100865.72;5092353;28;915;-60
2021/10/28 04:52:28;;;;;;;;;;;;;;;2.62;91.78;100862.66;5092441;28;802;-60
2021/10/28 04:54:54;;;;;;;;;;;;;;;2.58;91.49;100878.88;5092188;28;815;-60
2021/10/28 04:57:20;;;;;;;;;;;;;;;2.53;90.92;100875.50;5092227;28;902;-60
2021/10/28 04:59:48;;;;;;;;;;;;;;;2.43;90.57;100877.44;5092157;28;1996;-60
2021/10/28 05:02:15;;;;;;;;;;;;;;;2.43;91.21;100877.44;5092169;28;854;-60
2021/10/28 05:04:42;;;;;;;;;;;;;;;2.47;91.50;100883.03;5092071;28;868;-60
2021/10/28 05:07:08;;;;;;;;;;;;;;;2.46;91.70;100884.19;5092323;28;802;-60
2021/10/28 05:09:39;;;;;;;;;;;;;;;2.48;91.84;100887.41;5092021;28;877;-60
2021/10/28 05:20:26;;;;;;;;;;;;;;;2.83;92.24;100888.16;4992654;28;1914;-59
2021/10/28 05:22:52;;;;;;;;;;;;;;;3.09;92.49;100895.50;4992444;28;843;-60
2021/10/28 05:25:19;;;;;;;;;;;;;;;3.48;93.40;100901.81;4992567;28;842;-60
2021/10/28 05:27:46;;;;;;;;;;;;;;;3.98;93.61;100905.75;4992559;28;870;-59
2021/10/28 05:30:13;;;;;;;;;;;;;;;4.36;93.44;100902.94;4992595;28;807;-60
2021/10/28 05:32:39;;;;;;;;;;;;;;;4.67;93.50;100908.00;4975076;28;1367;-60
2021/10/28 05:35:06;;;;;;;;;;;;;;;5.01;92.68;100905.25;4992607;28;815;-60
2021/10/28 05:37:32;;;;;;;;;;;;;;;5.21;92.76;100901.69;4992623;28;882;-60
2021/10/28 05:40:00;;;;;;;;;;;;;;;5.37;91.32;100899.06;4992265;28;1902;-60
2021/10/28 05:42:28;;;;;;;;;;;;;;;5.53;91.16;100901.97;4992514;28;847;-60
2021/10/28 05:44:54;;;;;;;;;;;;;;;5.63;89.75;100904.25;4992609;28;834;-60
2021/10/28 05:47:21;;;;;;;;;;;;;;;5.78;89.87;100910.19;4992625;28;787;-60
2021/10/28 05:49:48;;;;;;;;;;;;;;;5.92;89.61;100916.13;4992764;28;921;-60
2021/10/28 05:52:16;;;;;;;;;;;;;;;6.13;89.24;100913.31;4974977;28;1381;-60
2021/10/28 05:54:43;;;;;;;;;;;;;;;6.54;88.71;100919.63;4974805;28;1329;-60
2021/10/28 05:57:10;;;;;;;;;;;;;;;6.97;87.53;100923.56;4995989;28;807;-60
2021/10/28 05:59:36;;;;;;;;;;;;;;;7.23;87.61;100916.81;4996268;28;1941;-60
2021/10/28 06:02:03;;;;;;;;;;;;;;;7.42;85.75;100916.91;4996378;28;845;-60
2021/10/28 06:04:30;;;;;;;;;;;;;;;7.64;86.00;100914.69;4996261;28;808;-60
2021/10/28 06:06:57;;;;;;;;;;;;;;;7.96;85.96;100918.25;4996301;28;787;-60
2021/10/28 06:09:23;;;;;;;;;;;;;;;8.20;84.93;100916.44;4996385;28;866;-60
2021/10/28 06:11:51;;;;;;;;;;;;;;;8.34;83.71;100916.72;4996007;28;879;-60
2021/10/28 06:14:23;;;;;;;;;;;;;;;8.61;83.74;100914.97;4996232;28;887;-60
2021/10/28 06:17:04;;;;;;;;;;;;;;;8.81;80.71;100917.72;4995697;28;862;-60
2021/10/28 06:19:31;;;;;;;;;;;;;;;9.04;78.36;100915.03;5010263;28;1906;-60
2021/10/28 06:21:57;;;;;;;;;;;;;;;9.56;72.84;100914.41;5015310;28;854;-60
2021/10/28 06:24:24;;;;;;;;;;;;;;;10.17;70.40;100904.28;5013954;28;1278;-60
2021/10/28 06:26:51;;;;;;;;;;;;;;;10.79;69.28;100892.09;5015248;28;869;-60
2021/10/28 06:29:17;;;;;;;;;;;;;;;11.29;65.75;100898.16;5015164;28;823;-60
2021/10/28 06:31:46;;;;;;;;;;;;;;;11.71;63.63;100905.25;5015114;28;791;-60
2021/10/28 06:34:25;;;;;;;;;;;;;;;11.93;59.44;100906.25;5015151;28;819;-60
2021/10/28 06:36:53;;;;;;;;;;;;;;;12.01;58.28;100912.63;5015022;28;866;-60
2021/10/28 06:39:19;;;;;;;;;;;;;;;12.14;58.57;100915.88;5014934;28;1890;-60
2021/10/28 06:41:46;;;;;;;;;;;;;;;12.10;57.41;100903.97;5014969;28;866;-61
2021/10/28 06:44:13;;;;;;;;;;;;;;;11.86;57.20;100908.91;5014963;28;862;-60
2021/10/28 06:46:39;;;;;;;;;;;;;;;11.94;58.34;100905.06;5014699;28;814;-60
2021/10/28 06:49:06;;;;;;;;;;;;;;;12.14;57.80;100904.78;5014845;28;811;-60
2021/10/28 06:51:39;;;;;;;;;;;;;;;12.28;56.57;100899.34;5014905;28;791;-60
2021/10/28 07:04:44;;;;;;;;;;;;;;;12.24;55.78;100888.22;5014533;28;633;-59
2021/10/28 07:07:10;;;;;;;;;;;;;;;12.45;54.54;100883.97;5013843;28;850;-60
2021/10/28 07:09:40;;;;;;;;;;;;;;;12.51;54.19;100878.88;5014583;28;862;-60
2021/10/28 07:12:18;;;;;;;;;;;;;;;12.84;53.14;100877.78;5013208;28;1188;-60
2021/10/28 07:14:49;;;;;;;;;;;;;;;13.18;51.97;100878.25;5014370;28;810;-60
2021/10/28 08:15:09;;;;;;;;;;;;;;;14.11;48.11;100866.34;4994214;28;654;-60
2021/10/28 08:17:35;;;;;;;;;;;;;;;13.94;48.95;100861.63;4987706;28;1075;-60
2021/10/28 08:20:05;;;;;;;;;;;;;;;14.08;48.93;100850.44;5010362;28;1910;-60
2021/10/28 08:22:43;;;;;;;;;;;;;;;14.03;48.41;100848.09;5013102;28;823;-61
2021/10/28 08:30:41;;;;;;;;;;;;;;;13.98;49.07;100863.19;5012952;28;672;-61
2021/10/28 08:33:07;;;;;;;;;;;;;;;14.03;48.66;100873.13;5012844;28;887;-60
2021/10/28 08:35:36;;;;;;;;;;;;;;;13.91;48.26;100876.31;5012892;28;799;-60
2021/10/28 08:38:03;;;;;;;;;;;;;;;14.01;48.84;100890.19;5012804;28;897;-60
2021/10/28 08:40:29;;;;;;;;;;;;;;;14.00;48.42;100894.16;5012678;28;1929;-60
2021/10/28 08:42:57;;;;;;;;;;;;;;;14.13;49.36;100888.97;5012721;28;815;-61
2021/10/28 08:45:25;;;;;;;;;;;;;;;14.33;47.76;100889.31;5012813;28;830;-61
2021/10/28 08:47:56;;;;;;;;;;;;;;;14.24;47.92;100888.97;5011284;28;807;-60
2021/10/28 08:50:33;;;;;;;;;;;;;;;14.28;47.93;100895.31;5013290;28;803;-61
2021/10/28 08:55:39;;;;;;;;;;;;;;;14.00;48.31;100898.94;5012492;28;684;-60
2021/10/28 08:58:33;;;;;;;;;;;;;;;14.05;48.52;100899.31;5012769;28;803;-61
2021/10/28 09:24:07;;;;;;;;;;;;;;;15.13;45.59;100885.03;5012506;28;606;-61
2021/10/28 09:29:20;;;;;;;;;;;;;;;15.14;45.03;100889.38;5012017;28;811;-60
2021/10/28 09:32:01;;;;;;;;;;;;;;;15.31;44.77;100885.66;5011645;28;826;-61
2021/10/28 09:45:54;;;;;;;;;;;;;;;15.14;44.94;100869.09;5012025;28;629;-60
2021/10/28 09:51:05;;;;;;;;;;;;;;;15.15;45.71;100865.91;5011800;28;649;-61
2021/10/28 09:53:59;;;;;;;;;;;;;;;15.34;44.12;100863.78;5011734;28;831;-59
2021/10/28 09:59:44;;;;;;;;;;;;;;;15.83;43.25;100856.22;5011684;28;1984;-60
2021/10/28 10:04:56;;;;;;;;;;;;;;;16.02;44.47;100838.88;5011694;28;633;-61
2021/10/28 10:07:23;;;;;;;;;;;;;;;16.31;42.88;100836.56;5011575;28;812;-61
2021/10/28 10:09:49;;;;;;;;;;;;;;;16.28;42.71;100842.19;5012189;28;787;-61
2021/10/28 10:12:17;;;;;;;;;;;;;;;16.17;43.63;100841.53;5011357;28;858;-61
2021/10/28 10:14:44;;;;;;;;;;;;;;;16.30;44.26;100839.78;5010577;28;1295;-61
2021/10/28 10:17:11;;;;;;;;;;;;;;;16.83;43.87;100840.31;5011922;28;1046;-61
2021/10/28 10:19:41;;;;;;;;;;;;;;;17.10;42.33;100846.69;5011558;28;1902;-61
2021/10/28 10:22:33;;;;;;;;;;;;;;;17.38;42.07;100835.50;5011477;28;791;-59
2021/10/28 10:25:19;;;;;;;;;;;;;;;17.50;41.18;100826.53;5010083;28;1264;-67
2021/10/28 11:25:35;;;;;;;;;;;;;;;17.50;40.28;100779.78;5014227;28;664;-61
2021/10/28 11:27:11;;;;;;;;;;;;;;;17.78;39.94;100774.91;5011800;28;838;-60
2021/10/28 12:46:00;;;;;;;;;;;;;;;18.93;37.10;100734.06;4952736;29;630;-62
2021/10/28 12:51:31;;;;;;;;;;;;;;;19.03;37.03;100737.81;4993255;28;664;-61
2021/10/28 13:38:09;;;;;;;;;;;;;;;17.38;45.06;100743.28;5011921;28;637;-60
2021/10/28 14:15:55;;;;;;;;;;;;;;;14.08;52.38;100772.63;5011917;28;692;-60
2021/10/28 14:18:52;;;;;;;;;;;;;;;13.92;52.90;100766.75;5014685;28;1171;-61
2021/10/28 14:23:38;;;;;;;;;;;;;;;13.70;53.82;100764.03;5015286;28;865;-60
2021/10/28 14:31:50;;;;;;;;;;;;;;;13.18;55.93;100783.88;5015236;28;681;-61
2021/10/28 14:37:24;;;;;;;;;;;;;;;12.74;57.60;100778.66;5015074;28;684;-61
2021/10/28 15:29:05;;;;;;;;;;;;;;;8.76;71.34;100800.28;5013554;28;685;-62
2021/10/28 15:32:11;;;;;;;;;;;;;;;8.59;71.74;100802.34;5014168;28;870;-62
2021/10/28 15:51:03;;;;;;;;;;;;;;;7.92;74.88;100788.78;4982755;28;1253;-62
2021/10/28 15:53:33;;;;;;;;;;;;;;;7.81;75.41;100796.00;5013409;28;1087;-61
2021/10/28 16:23:45;;;;;;;;;;;;;;;7.52;78.60;100805.56;5008379;28;941;-61
2021/10/28 16:26:12;;;;;;;;;;;;;;;7.55;77.88;100793.81;5013288;28;803;-62
2021/10/28 16:28:37;;;;;;;;;;;;;;;7.60;78.13;100804.56;5011791;28;1377;-62
2021/10/28 16:31:04;;;;;;;;;;;;;;;7.64;77.60;100807.38;5012953;28;885;-62
2021/10/28 16:33:30;;;;;;;;;;;;;;;7.64;77.29;100807.38;5013035;28;810;-62
2021/10/28 16:35:57;;;;;;;;;;;;;;;7.55;77.83;100799.31;5012761;28;795;-62
2021/10/28 16:38:25;;;;;;;;;;;;;;;7.47;78.14;100798.38;5012928;28;830;-61
2021/10/28 16:40:52;;;;;;;;;;;;;;;7.41;77.60;100808.06;4994290;28;1902;-62
2021/10/28 16:43:18;;;;;;;;;;;;;;;7.35;78.39;100806.72;5013048;28;854;-62
2021/10/28 16:45:46;;;;;;;;;;;;;;;7.30;78.71;100807.00;5012713;28;889;-61
2021/10/28 16:48:15;;;;;;;;;;;;;;;7.24;78.54;100808.41;4995106;28;1221;-62
2021/10/28 16:50:42;;;;;;;;;;;;;;;7.22;78.61;100803.28;5012693;28;823;-61
2021/10/28 16:53:09;;;;;;;;;;;;;;;7.22;78.61;100818.97;5012720;28;854;-62
2021/10/28 16:55:35;;;;;;;;;;;;;;;7.21;78.67;100817.38;5012583;28;838;-62
2021/10/28 16:58:02;;;;;;;;;;;;;;;7.22;79.30;100813.47;5012480;28;861;-61
2021/10/28 17:00:29;;;;;;;;;;;;;;;7.20;79.11;100815.78;5012460;28;1896;-61
2021/10/28 17:02:56;;;;;;;;;;;;;;;7.16;79.05;100816.47;5012413;28;843;-62
2021/10/28 17:05:22;;;;;;;;;;;;;;;7.13;78.38;100811.69;5012348;28;862;-61
2021/10/28 17:07:50;;;;;;;;;;;;;;;7.09;79.27;100819.06;5012331;28;841;-61
2021/10/28 17:10:15;;;;;;;;;;;;;;;7.05;79.00;100820.91;5012381;28;819;-61
2021/10/28 17:12:42;;;;;;;;;;;;;;;7.01;79.23;100813.72;5012240;28;889;-61
2021/10/28 17:15:09;;;;;;;;;;;;;;;6.97;79.30;100816.38;5012260;28;791;-62
2021/10/28 17:17:35;;;;;;;;;;;;;;;7.01;79.80;100819.22;5012347;28;950;-62
2021/10/28 17:20:05;;;;;;;;;;;;;;;6.99;79.75;100819.56;5011915;28;1973;-62
2021/10/28 17:22:35;;;;;;;;;;;;;;;6.97;79.90;100819.13;5012200;28;862;-61
2021/10/28 17:25:04;;;;;;;;;;;;;;;6.90;79.35;100814.25;5012125;28;961;-62
2021/10/28 17:27:31;;;;;;;;;;;;;;;6.85;80.08;100806.28;4994456;28;843;-62
2021/10/28 17:29:59;;;;;;;;;;;;;;;6.90;80.05;100810.72;5011977;28;823;-61
2021/10/28 17:32:26;;;;;;;;;;;;;;;6.92;79.83;100802.91;5012131;28;858;-61
2021/10/28 17:34:52;;;;;;;;;;;;;;;6.93;79.79;100807.25;5011909;28;873;-64
2021/10/28 17:37:19;;;;;;;;;;;;;;;6.92;79.80;100800.94;5011881;28;839;-61
2021/10/28 17:39:45;;;;;;;;;;;;;;;6.86;79.00;100796.06;5012195;28;1890;-62
2021/10/28 17:42:12;;;;;;;;;;;;;;;6.78;79.65;100797.81;5011863;28;783;-62
2021/10/28 17:44:49;;;;;;;;;;;;;;;6.75;79.62;100807.56;5011864;28;819;-62
2021/10/28 17:47:16;;;;;;;;;;;;;;;6.74;79.57;100797.75;5011824;28;834;-61
2021/10/28 17:49:43;;;;;;;;;;;;;;;6.69;79.40;100794.44;5011828;28;819;-61
2021/10/28 17:52:09;;;;;;;;;;;;;;;6.61;79.30;100800.91;5011494;28;813;-61
2021/10/28 17:54:36;;;;;;;;;;;;;;;6.50;79.45;100811.59;5011773;28;807;-61
2021/10/28 17:57:04;;;;;;;;;;;;;;;6.42;80.71;100801.56;5010494;28;1299;-61
2021/10/28 17:59:31;;;;;;;;;;;;;;;6.37;80.82;100799.06;4993934;28;1902;-61
2021/10/28 18:01:56;;;;;;;;;;;;;;;6.32;80.33;100797.38;5011687;28;846;-61
2021/10/28 18:04:23;;;;;;;;;;;;;;;6.32;80.14;100795.41;5011528;28;827;-62
2021/10/28 18:06:50;;;;;;;;;;;;;;;6.35;79.94;100799.41;5011693;28;831;-63
2021/10/28 18:09:18;;;;;;;;;;;;;;;6.38;80.09;100800.66;5011583;28;870;-61
2021/10/28 18:11:45;;;;;;;;;;;;;;;6.36;79.83;100802.94;5011622;28;815;-61
2021/10/28 18:14:16;;;;;;;;;;;;;;;6.37;79.99;100808.09;5011676;28;799;-61
2021/10/28 18:16:43;;;;;;;;;;;;;;;6.34;79.50;100820.59;5011720;28;854;-61
2021/10/28 18:19:09;;;;;;;;;;;;;;;6.28;79.14;100824.72;5011644;28;1368;-61
2021/10/28 18:21:40;;;;;;;;;;;;;;;6.24;79.54;100826.56;5011717;28;1918;-61
2021/10/28 18:24:06;;;;;;;;;;;;;;;6.24;79.49;100832.06;5011495;28;885;-62
2021/10/28 18:26:34;;;;;;;;;;;;;;;6.31;78.72;100826.75;5011640;28;803;-63
2021/10/28 18:29:01;;;;;;;;;;;;;;;6.43;78.35;100827.88;5011525;28;818;-61
2021/10/28 18:31:28;;;;;;;;;;;;;;;6.37;78.16;100821.03;5011409;28;826;-61
2021/10/28 18:33:57;;;;;;;;;;;;;;;6.24;78.22;100829.31;5011410;28;799;-61
2021/10/28 18:36:25;;;;;;;;;;;;;;;6.15;78.90;100827.88;5011353;28;850;-62
2021/10/28 18:38:52;;;;;;;;;;;;;;;5.99;78.63;100833.25;5011438;28;861;-61
2021/10/28 18:41:19;;;;;;;;;;;;;;;5.88;79.08;100835.66;5011265;28;1898;-61
2021/10/28 18:43:46;;;;;;;;;;;;;;;5.83;78.40;100830.41;5011327;28;878;-61
2021/10/28 18:46:13;;;;;;;;;;;;;;;5.96;79.82;100831.22;5011328;28;834;-61
2021/10/28 18:48:39;;;;;;;;;;;;;;;6.24;79.18;100829.31;5011319;28;835;-61
2021/10/28 18:51:06;;;;;;;;;;;;;;;6.37;79.45;100823.78;5011309;28;808;-61
2021/10/28 18:53:38;;;;;;;;;;;;;;;6.42;78.67;100835.34;5011164;28;916;-61
2021/10/28 18:56:06;;;;;;;;;;;;;;;6.34;79.09;100833.53;5011276;28;815;-61
2021/10/28 18:58:33;;;;;;;;;;;;;;;6.37;79.68;100827.31;5011383;28;838;-61
2021/10/28 19:01:00;;;;;;;;;;;;;;;6.54;79.13;100831.72;5011074;28;1898;-62
2021/10/28 19:03:27;;;;;;;;;;;;;;;6.64;78.85;100838.66;5011790;28;819;-61
2021/10/28 19:05:55;;;;;;;;;;;;;;;6.72;79.18;100835.75;5013445;28;1487;-61
2021/10/28 19:08:23;;;;;;;;;;;;;;;6.71;78.89;100838.84;5014512;28;957;-63
2021/10/28 19:10:50;;;;;;;;;;;;;;;6.63;79.53;100840.59;5014517;28;795;-61
2021/10/28 19:13:17;;;;;;;;;;;;;;;6.69;79.77;100839.19;5014521;28;795;-61
2021/10/28 19:15:43;;;;;;;;;;;;;;;6.75;80.07;100835.06;5014352;28;835;-62
2021/10/28 19:18:09;;;;;;;;;;;;;;;6.89;78.69;100837.41;5014510;28;1214;-61
2021/10/28 19:20:35;;;;;;;;;;;;;;;6.86;78.78;100837.28;5014385;28;1922;-63
2021/10/28 19:23:03;;;;;;;;;;;;;;;6.77;78.71;100828.41;5014480;28;799;-61
2021/10/28 19:25:29;;;;;;;;;;;;;;;6.65;79.09;100832.00;5014289;28;843;-61
2021/10/28 19:27:56;;;;;;;;;;;;;;;6.46;79.93;100829.91;5014209;28;858;-62
2021/10/28 19:32:51;;;;;;;;;;;;;;;6.18;80.27;100830.69;5014008;28;669;-61
2021/10/28 19:35:19;;;;;;;;;;;;;;;6.20;80.76;100833.09;5014231;28;827;-61
2021/10/28 19:37:52;;;;;;;;;;;;;;;6.37;80.81;100827.31;5014000;28;870;-61
2021/10/28 19:48:30;;;;;;;;;;;;;;;6.29;81.04;100837.31;4915267;29;818;-61
2021/10/28 19:50:57;;;;;;;;;;;;;;;6.21;80.46;100838.25;4915382;29;1048;-62
2021/10/28 19:53:24;;;;;;;;;;;;;;;6.07;80.98;100844.09;4915238;29;863;-61
2021/10/28 19:55:50;;;;;;;;;;;;;;;5.92;81.00;100847.53;4915373;29;1009;-61
2021/10/28 19:58:23;;;;;;;;;;;;;;;5.82;80.96;100846.06;4915146;29;820;-61
2021/10/28 20:00:57;;;;;;;;;;;;;;;5.80;81.42;100842.84;4915038;29;1899;-61
2021/10/28 20:22:18;;;;;;;;;;;;;;;5.99;80.22;100836.78;4950889;28;985;-61
2021/10/28 20:24:44;;;;;;;;;;;;;;;6.07;80.04;100843.31;4993541;28;866;-62
2021/10/28 20:27:11;;;;;;;;;;;;;;;5.97;79.48;100843.78;4993493;28;922;-62
2021/10/28 20:29:38;;;;;;;;;;;;;;;5.74;80.31;100841.50;4993475;28;854;-62
2021/10/28 20:32:04;;;;;;;;;;;;;;;5.46;80.52;100831.25;4992052;28;1192;-62
2021/10/28 20:37:09;;;;;;;;;;;;;;;4.97;80.61;100827.63;4993319;28;724;-62
2021/10/28 20:39:38;;;;;;;;;;;;;;;4.75;81.10;100840.56;4993270;28;1894;-63
2021/10/28 20:42:05;;;;;;;;;;;;;;;4.62;81.85;100845.22;4993250;28;878;-61
2021/10/28 20:44:32;;;;;;;;;;;;;;;4.56;81.71;100832.88;4993182;28;862;-63
2021/10/28 20:46:58;;;;;;;;;;;;;;;4.57;82.33;100848.16;4993150;28;847;-62
2021/10/28 20:49:25;;;;;;;;;;;;;;;4.57;82.43;100845.44;4993428;28;850;-61
2021/10/28 20:51:52;;;;;;;;;;;;;;;4.58;82.83;100844.28;4993029;28;879;-62
2021/10/28 20:54:21;;;;;;;;;;;;;;;4.53;83.17;100843.72;4993024;28;862;-61
2021/10/28 20:56:48;;;;;;;;;;;;;;;4.53;83.52;100841.75;4992992;28;815;-62
2021/10/28 20:59:15;;;;;;;;;;;;;;;4.53;84.07;100847.25;4993102;28;862;-61
2021/10/28 21:01:42;;;;;;;;;;;;;;;4.55;84.20;100847.72;4992809;28;1879;-61
2021/10/28 21:04:09;;;;;;;;;;;;;;;4.52;84.05;100858.53;4992861;28;815;-61
2021/10/28 21:06:36;;;;;;;;;;;;;;;4.52;83.87;100850.31;4992823;28;858;-62
2021/10/28 21:09:03;;;;;;;;;;;;;;;4.55;84.48;100858.66;4992780;28;846;-62
2021/10/28 21:11:29;;;;;;;;;;;;;;;4.66;84.61;100848.88;4992711;28;905;-61
2021/10/28 21:13:56;;;;;;;;;;;;;;;4.70;84.57;100857.22;4992626;28;815;-62
2021/10/28 21:16:22;;;;;;;;;;;;;;;4.70;84.63;100852.56;4991097;28;1479;-61
2021/10/28 21:18:49;;;;;;;;;;;;;;;4.71;84.61;100856.09;5000275;28;1200;-62
2021/10/28 21:21:16;;;;;;;;;;;;;;;4.67;84.38;100850.50;5012116;28;1910;-61
2021/10/28 21:23:42;;;;;;;;;;;;;;;4.59;84.96;100848.63;5012104;28;799;-61
2021/10/28 21:26:09;;;;;;;;;;;;;;;4.68;85.10;100846.59;5011644;28;823;-63
2021/10/28 21:28:35;;;;;;;;;;;;;;;4.78;84.98;100830.88;5012068;28;910;-62
2021/10/28 21:31:02;;;;;;;;;;;;;;;4.83;84.61;100831.47;5011942;28;854;-61
2021/10/28 21:33:29;;;;;;;;;;;;;;;4.86;85.33;100835.47;5011968;28;835;-61
2021/10/28 21:35:56;;;;;;;;;;;;;;;4.84;84.71;100841.31;5012228;28;819;-61
2021/10/28 21:38:22;;;;;;;;;;;;;;;4.80;84.75;100847.78;5011930;28;818;-62
2021/10/28 21:40:48;;;;;;;;;;;;;;;4.72;84.90;100845.94;5011858;28;1953;-61
2021/10/28 21:43:15;;;;;;;;;;;;;;;4.62;84.92;100844.41;4994223;28;1213;-61
2021/10/28 21:45:46;;;;;;;;;;;;;;;4.52;85.24;100842.09;5011807;28;858;-61
2021/10/28 21:48:12;;;;;;;;;;;;;;;4.46;85.53;100841.53;5011822;28;898;-62
2021/10/28 21:50:39;;;;;;;;;;;;;;;4.44;85.50;100827.38;5010486;28;1303;-61
2021/10/28 21:53:10;;;;;;;;;;;;;;;4.42;85.65;100829.63;5011838;28;812;-61
2021/10/28 22:25:48;;;;;;;;;;;;;;;4.23;85.87;100802.75;5011874;28;629;-63
2021/10/28 22:28:15;;;;;;;;;;;;;;;4.24;86.06;100805.13;5011482;28;803;-61
2021/10/28 22:30:41;;;;;;;;;;;;;;;4.21;85.53;100797.59;5011263;28;854;-62
2021/10/28 22:33:08;;;;;;;;;;;;;;;4.11;85.67;100797.22;5011427;28;819;-61
2021/10/28 22:35:40;;;;;;;;;;;;;;;3.96;86.68;100793.13;5011431;28;827;-63
2021/10/28 22:38:09;;;;;;;;;;;;;;;3.83;86.52;100789.53;5011684;28;898;-63
2021/10/28 22:40:45;;;;;;;;;;;;;;;3.77;86.71;100786.19;5015603;28;1898;-62
2021/10/28 22:43:16;;;;;;;;;;;;;;;3.74;87.08;100777.84;5015054;28;870;-61
2021/10/28 22:45:43;;;;;;;;;;;;;;;3.69;86.68;100773.38;5015039;28;819;-62
2021/10/28 22:48:12;;;;;;;;;;;;;;;3.66;87.24;100772.09;5014963;28;830;-61
2021/10/28 22:50:39;;;;;;;;;;;;;;;3.73;87.55;100771.56;5014877;28;803;-62